createdAt,value
2023-09-14T00:02:07.176Z,72.03
2023-09-14T00:05:11.112Z,72.07
2023-09-14T00:08:14.664Z,72.19
2023-09-14T00:11:17.609Z,72.26
2023-09-14T00:14:20.476Z,72.29
2023-09-14T00:17:23.480Z,72.45
2023-09-14T00:20:29.160Z,72.49
2023-09-14T00:23:32.091Z,72.60
2023-09-14T00:26:34.975Z,72.73
2023-09-14T00:29:37.878Z,72.72
2023-09-14T00:32:41.401Z,72.84
2023-09-14T00:35:48.082Z,72.90
2023-09-14T00:38:50.986Z,72.96
2023-09-14T00:41:53.924Z,73.10
2023-09-14T00:44:56.843Z,73.22
2023-09-14T00:48:03.445Z,73.34
2023-09-14T00:51:07.602Z,73.45
2023-09-14T00:54:10.594Z,73.52
2023-09-14T00:57:13.541Z,73.61
2023-09-14T01:00:17.800Z,73.69
2023-09-14T01:03:20.978Z,73.76
2023-09-14T01:06:26.070Z,73.83
2023-09-14T01:09:28.968Z,73.84
2023-09-14T01:12:33.603Z,73.88
2023-09-14T01:15:42.022Z,73.94
2023-09-14T01:18:59.143Z,73.97
2023-09-14T01:22:21.295Z,74.02
2023-09-14T01:25:42.275Z,74.13
2023-09-14T01:28:45.931Z,74.19
2023-09-14T01:31:49.101Z,74.24
2023-09-14T01:34:52.008Z,74.24
2023-09-14T01:37:56.684Z,74.20
2023-09-14T01:41:01.051Z,74.20
2023-09-14T01:44:05.656Z,74.24
2023-09-14T01:47:09.399Z,74.26
2023-09-14T01:50:12.291Z,74.41
2023-09-14T01:53:15.171Z,74.58
2023-09-14T01:56:18.183Z,74.73
2023-09-14T01:59:21.437Z,74.85
2023-09-14T02:02:26.592Z,74.92
2023-09-14T02:05:29.642Z,74.86
2023-09-14T02:08:32.602Z,74.90
2023-09-14T02:11:35.727Z,75.08
2023-09-14T02:14:38.652Z,75.31
2023-09-14T02:17:41.728Z,75.50
2023-09-14T02:20:44.980Z,75.68
2023-09-14T02:23:48.040Z,75.84
2023-09-14T02:26:52.755Z,75.88
2023-09-14T02:29:56.374Z,75.97
2023-09-14T02:33:01.360Z,75.91
2023-09-14T02:36:04.650Z,75.96
2023-09-14T02:39:07.804Z,75.99
2023-09-14T02:42:10.739Z,76.03
2023-09-14T02:45:13.643Z,76.10
2023-09-14T02:48:17.032Z,76.18
2023-09-14T02:51:19.948Z,76.22
2023-09-14T02:54:22.995Z,76.19
2023-09-14T02:57:26.609Z,76.18
2023-09-14T03:00:29.799Z,76.15
2023-09-14T03:03:32.850Z,76.12
2023-09-14T03:06:36.201Z,76.03
2023-09-14T03:09:39.227Z,76.02
2023-09-14T03:12:42.399Z,76.02
2023-09-14T03:15:45.691Z,76.04
2023-09-14T03:18:49.101Z,76.00
2023-09-14T03:21:52.309Z,75.98
2023-09-14T03:24:55.524Z,75.94
2023-09-14T03:27:58.584Z,75.93
2023-09-14T03:31:01.677Z,75.89
2023-09-14T03:34:06.645Z,75.90
2023-09-14T03:37:09.779Z,75.86
2023-09-14T03:40:12.814Z,75.85
2023-09-14T03:43:15.798Z,75.89
2023-09-14T03:46:19.018Z,75.95
2023-09-14T03:49:22.078Z,75.90
2023-09-14T03:52:25.536Z,75.91
2023-09-14T03:55:29.928Z,75.88
2023-09-14T03:58:32.912Z,75.74
2023-09-14T04:01:36.004Z,75.57
2023-09-14T04:04:43.185Z,75.32
2023-09-14T04:07:47.420Z,75.09
2023-09-14T04:10:52.583Z,74.77
2023-09-14T04:13:57.348Z,74.56
2023-09-14T04:17:01.806Z,74.42
2023-09-14T04:20:11.779Z,74.19
2023-09-14T04:23:15.271Z,74.04
2023-09-14T04:26:19.680Z,74.08
2023-09-14T04:29:22.756Z,73.94
2023-09-14T04:32:25.771Z,73.78
2023-09-14T04:35:28.839Z,73.77
2023-09-14T04:38:33.716Z,73.76
2023-09-14T04:41:37.951Z,73.77
2023-09-14T04:44:41.298Z,73.83
2023-09-14T04:47:44.456Z,73.88
2023-09-14T04:50:47.658Z,73.90
2023-09-14T04:53:50.708Z,73.81
2023-09-14T04:56:53.782Z,73.80
2023-09-14T04:59:56.840Z,73.73
2023-09-14T05:03:03.142Z,73.64
2023-09-14T05:06:06.284Z,73.45
2023-09-14T05:09:09.567Z,73.47
2023-09-14T05:12:12.729Z,73.42
2023-09-14T05:15:15.713Z,73.48
2023-09-14T05:18:18.724Z,73.51
2023-09-14T05:21:21.783Z,73.56
2023-09-14T05:24:25.301Z,73.65
2023-09-14T05:27:28.395Z,73.71
2023-09-14T05:30:33.617Z,73.74
2023-09-14T05:33:37.146Z,73.75
2023-09-14T05:36:40.147Z,73.76
2023-09-14T05:39:43.309Z,73.90
2023-09-14T05:42:47.088Z,73.93
2023-09-14T05:45:52.189Z,73.96
2023-09-14T05:48:55.774Z,73.96
2023-09-14T05:51:59.709Z,73.93
2023-09-14T05:55:06.651Z,73.99
2023-09-14T05:58:11.042Z,73.88
2023-09-14T06:01:15.639Z,73.90
2023-09-14T06:04:19.004Z,73.89
2023-09-14T06:07:26.535Z,73.81
2023-09-14T06:10:29.661Z,73.82
2023-09-14T06:13:32.670Z,73.72
2023-09-14T06:16:36.966Z,73.57
2023-09-14T06:19:40.110Z,73.52
2023-09-14T06:22:43.091Z,73.51
2023-09-14T06:25:46.036Z,73.38
2023-09-14T06:28:49.166Z,73.29
2023-09-14T06:31:52.357Z,73.36
2023-09-14T06:34:55.310Z,73.35
2023-09-14T06:37:58.391Z,73.24
2023-09-14T06:41:01.493Z,73.18
2023-09-14T06:44:05.077Z,73.51
2023-09-14T06:47:08.073Z,73.25
2023-09-14T06:50:11.070Z,72.84
2023-09-14T06:53:14.026Z,72.86
2023-09-14T06:56:16.935Z,72.77
2023-09-14T06:59:19.929Z,72.64
2023-09-14T07:02:22.934Z,72.63
2023-09-14T07:05:25.920Z,72.71
2023-09-14T07:08:29.207Z,72.61
2023-09-14T07:11:32.264Z,72.38
2023-09-14T07:14:35.337Z,72.41
2023-09-14T07:17:38.303Z,72.45
2023-09-14T07:20:41.282Z,72.58
2023-09-14T07:23:45.030Z,72.73
2023-09-14T07:26:48.478Z,72.85
2023-09-14T07:29:51.620Z,72.68
2023-09-14T07:32:54.928Z,72.68
2023-09-14T07:35:58.003Z,72.66
2023-09-14T07:39:00.999Z,72.49
2023-09-14T07:42:04.255Z,72.72
2023-09-14T07:45:09.156Z,72.93
2023-09-14T07:48:12.249Z,73.22
2023-09-14T07:51:15.349Z,73.32
2023-09-14T07:54:18.325Z,72.45
2023-09-14T07:57:21.507Z,72.21
2023-09-14T08:00:24.784Z,72.25
2023-09-14T08:03:29.068Z,71.89
2023-09-14T08:06:33.153Z,71.65
2023-09-14T08:09:36.116Z,71.80
2023-09-14T08:12:39.370Z,72.75
2023-09-14T08:15:42.698Z,71.75
2023-09-14T08:18:46.650Z,71.07
2023-09-14T08:21:50.285Z,71.74
2023-09-14T08:24:55.471Z,71.85
2023-09-14T08:27:58.626Z,71.42
2023-09-14T08:31:02.118Z,70.80
2023-09-14T08:34:05.291Z,70.40
2023-09-14T08:37:09.403Z,70.45
2023-09-14T08:40:16.256Z,70.30
2023-09-14T08:43:20.713Z,69.78
2023-09-14T08:46:25.650Z,70.03
2023-09-14T08:49:32.213Z,70.13
2023-09-14T08:52:36.736Z,70.36
2023-09-14T08:55:39.889Z,69.73
2023-09-14T08:58:45.476Z,70.29
2023-09-14T09:01:51.955Z,69.80
2023-09-14T09:04:55.205Z,69.55
2023-09-14T09:07:59.816Z,69.04
2023-09-14T09:11:04.081Z,69.00
2023-09-14T09:14:07.045Z,69.48
2023-09-14T09:17:10.087Z,69.46
2023-09-14T09:20:15.379Z,69.28
2023-09-14T09:23:22.082Z,69.17
2023-09-14T09:26:25.789Z,68.97
2023-09-14T09:29:28.948Z,68.49
2023-09-14T09:32:31.935Z,67.98
2023-09-14T09:35:38.381Z,67.51
2023-09-14T09:38:42.063Z,67.16
2023-09-14T09:41:47.121Z,67.53
2023-09-14T09:44:55.520Z,67.40
2023-09-14T09:48:02.319Z,66.79
2023-09-14T09:51:06.236Z,66.31
2023-09-14T09:54:09.290Z,66.02
2023-09-14T09:57:12.357Z,65.45
2023-09-14T10:00:16.284Z,65.09
2023-09-14T10:03:24.344Z,64.68
2023-09-14T10:06:27.920Z,64.40
2023-09-14T10:09:35.693Z,64.59
2023-09-14T10:12:40.264Z,64.55
2023-09-14T10:15:44.065Z,64.75
2023-09-14T10:18:50.131Z,65.02
2023-09-14T10:21:56.190Z,64.71
2023-09-14T10:24:59.838Z,64.42
2023-09-14T10:28:04.853Z,64.24
2023-09-14T10:31:10.734Z,64.56
2023-09-14T10:34:14.772Z,64.97
2023-09-14T10:37:20.415Z,64.81
2023-09-14T10:40:25.148Z,64.84
2023-09-14T10:43:29.009Z,64.78
2023-09-14T10:46:41.492Z,64.91
2023-09-14T10:49:45.870Z,64.80
2023-09-14T10:52:49.147Z,64.74
2023-09-14T10:55:52.217Z,64.74
2023-09-14T10:58:55.535Z,64.81
2023-09-14T11:05:12.336Z,65.01
2023-09-14T11:08:16.877Z,65.16
2023-09-14T11:11:39.744Z,65.47
2023-09-14T11:15:15.150Z,65.58
2023-09-14T11:18:18.962Z,65.72
2023-09-14T11:21:43.821Z,65.72
2023-09-14T11:24:49.668Z,65.68
2023-09-14T11:27:55.580Z,66.01
2023-09-14T11:31:00.111Z,66.43
2023-09-14T11:34:12.519Z,66.72
2023-09-14T11:37:20.429Z,66.83
2023-09-14T11:40:32.662Z,66.77
2023-09-14T11:47:14.933Z,67.04
2023-09-14T11:50:21.514Z,67.20
2023-09-14T11:53:25.968Z,67.35
2023-09-14T11:56:31.712Z,67.54
2023-09-14T11:59:35.483Z,67.58
2023-09-14T12:02:38.651Z,67.83
2023-09-14T12:05:41.769Z,67.66
2023-09-14T12:08:49.119Z,67.58
2023-09-14T12:11:52.190Z,67.47
2023-09-14T12:14:55.686Z,67.60
2023-09-14T12:17:58.729Z,68.21
2023-09-14T12:21:01.827Z,68.31
2023-09-14T12:24:05.335Z,68.19
2023-09-14T12:27:08.434Z,68.47
2023-09-14T12:30:12.957Z,68.41
2023-09-14T12:33:18.552Z,68.32
2023-09-14T12:36:21.755Z,68.29
2023-09-14T12:39:25.039Z,68.33
2023-09-14T12:42:28.126Z,68.01
2023-09-14T12:45:34.955Z,67.44
2023-09-14T12:48:38.188Z,67.25
2023-09-14T12:51:47.453Z,66.98
2023-09-14T12:54:51.162Z,67.01
2023-09-14T12:57:55.429Z,67.09
2023-09-14T13:00:58.412Z,67.01
2023-09-14T13:04:02.533Z,67.05
2023-09-14T13:07:05.661Z,67.22
2023-09-14T13:10:10.580Z,67.33
2023-09-14T13:13:15.544Z,67.56
2023-09-14T13:16:19.816Z,67.65
2023-09-14T13:19:26.903Z,67.13
2023-09-14T13:22:32.263Z,66.05
2023-09-14T13:25:36.787Z,65.96
2023-09-14T13:28:39.886Z,65.94
2023-09-14T13:31:43.478Z,65.42
2023-09-14T13:34:46.535Z,65.58
2023-09-14T13:37:58.275Z,65.51
2023-09-14T13:41:01.647Z,65.24
2023-09-14T13:44:05.042Z,65.20
2023-09-14T13:47:08.317Z,65.40
2023-09-14T13:50:11.720Z,65.54
2023-09-14T13:53:16.210Z,65.96
2023-09-14T13:56:20.202Z,66.48
2023-09-14T13:59:26.520Z,67.03
2023-09-14T14:02:29.670Z,67.30
2023-09-14T14:05:33.960Z,66.77
2023-09-14T14:08:36.949Z,66.44
2023-09-14T14:11:39.938Z,67.16
2023-09-14T14:14:42.956Z,66.95
2023-09-14T14:17:48.031Z,66.67
2023-09-14T14:20:51.116Z,66.53
2023-09-14T14:23:54.077Z,66.52
2023-09-14T14:26:58.101Z,66.50
2023-09-14T14:30:01.139Z,66.43
2023-09-14T14:33:13.229Z,66.62
2023-09-14T14:36:16.263Z,66.40
2023-09-14T14:39:19.555Z,66.14
2023-09-14T14:42:22.569Z,65.92
2023-09-14T14:45:27.252Z,65.85
2023-09-14T14:48:30.444Z,65.72
2023-09-14T14:51:33.785Z,65.23
2023-09-14T14:54:36.984Z,64.90
2023-09-14T14:57:39.928Z,65.06
2023-09-14T15:00:42.845Z,64.93
2023-09-14T15:03:45.927Z,64.94
2023-09-14T15:06:48.998Z,65.11
2023-09-14T15:09:52.048Z,65.05
2023-09-14T15:12:55.799Z,65.14
2023-09-14T15:15:59.044Z,65.32
2023-09-14T15:19:01.996Z,65.14
2023-09-14T15:22:05.033Z,64.89
2023-09-14T15:25:09.172Z,64.92
2023-09-14T15:28:12.218Z,65.08
2023-09-14T15:31:17.248Z,65.29
2023-09-14T15:34:20.697Z,65.24
2023-09-14T15:37:23.647Z,65.27
2023-09-14T15:40:26.653Z,65.20
2023-09-14T15:43:29.611Z,65.37
2023-09-14T15:46:33.592Z,65.35
2023-09-14T15:49:37.395Z,65.24
2023-09-14T15:52:40.388Z,65.33
2023-09-14T15:55:43.417Z,65.43
2023-09-14T15:58:49.880Z,65.43
2023-09-14T16:01:53.080Z,65.37
2023-09-14T16:04:57.600Z,65.65
2023-09-14T16:08:08.677Z,65.66
2023-09-14T16:11:11.652Z,65.60
2023-09-14T16:14:15.932Z,65.74
2023-09-14T16:17:18.841Z,65.93
2023-09-14T16:20:22.498Z,66.13
2023-09-14T16:23:26.297Z,66.13
2023-09-14T16:26:29.707Z,66.42
2023-09-14T16:29:33.171Z,66.48
2023-09-14T16:32:36.192Z,66.46
2023-09-14T16:35:40.397Z,66.54
2023-09-14T16:38:45.806Z,66.78
2023-09-14T16:41:49.204Z,66.78
2023-09-14T16:44:52.166Z,66.98
2023-09-14T16:47:57.006Z,67.12
2023-09-14T16:51:00.084Z,67.27
2023-09-14T16:54:03.121Z,67.32
2023-09-14T16:57:06.119Z,67.28
2023-09-14T17:00:10.169Z,67.43
2023-09-14T17:03:13.305Z,67.58
2023-09-14T17:06:17.819Z,67.79
2023-09-14T17:09:22.411Z,67.72
2023-09-14T17:12:26.125Z,67.91
2023-09-14T17:15:29.340Z,68.01
2023-09-14T17:18:33.502Z,68.10
2023-09-14T17:21:36.624Z,68.15
2023-09-14T17:24:40.797Z,68.54
2023-09-14T17:27:45.294Z,68.98
2023-09-14T17:30:48.791Z,69.15
2023-09-14T17:33:52.987Z,69.26
2023-09-14T17:36:57.659Z,69.40
2023-09-14T17:40:01.220Z,69.47
2023-09-14T17:43:06.051Z,69.55
2023-09-14T17:46:09.725Z,69.74
2023-09-14T17:49:12.839Z,70.05
2023-09-14T17:52:17.052Z,70.05
2023-09-14T17:55:21.974Z,70.07
2023-09-14T17:58:24.972Z,70.10
2023-09-14T18:01:28.293Z,70.12
2023-09-14T18:04:35.244Z,70.14
2023-09-14T18:07:38.431Z,70.19
2023-09-14T18:10:42.574Z,70.27
2023-09-14T18:13:45.556Z,70.35
2023-09-14T18:16:49.583Z,70.40
2023-09-14T18:19:52.719Z,70.66
2023-09-14T18:22:55.711Z,70.71
2023-09-14T18:25:59.263Z,70.78
2023-09-14T18:29:07.700Z,70.74
2023-09-14T18:32:12.349Z,70.87
2023-09-14T18:35:16.103Z,70.86
2023-09-14T18:38:19.048Z,70.90
2023-09-14T18:41:22.424Z,70.90
2023-09-14T18:44:26.407Z,70.92
2023-09-14T18:47:31.504Z,70.98
2023-09-14T18:50:36.846Z,71.09
2023-09-14T18:53:40.235Z,71.12
2023-09-14T18:56:43.595Z,71.26
2023-09-14T18:59:46.510Z,71.37
2023-09-14T19:02:49.526Z,71.47
2023-09-14T19:05:55.337Z,71.56
2023-09-14T19:08:58.299Z,71.69
2023-09-14T19:12:03.274Z,71.72
2023-09-14T19:15:06.961Z,71.85
2023-09-14T19:18:10.982Z,71.96
2023-09-14T19:21:13.859Z,72.03
2023-09-14T19:24:16.754Z,72.15
2023-09-14T19:27:19.769Z,72.23
2023-09-14T19:30:22.984Z,72.35
2023-09-14T19:33:26.130Z,72.61
2023-09-14T19:36:29.115Z,72.68
2023-09-14T19:39:32.074Z,72.72
2023-09-14T19:42:35.174Z,72.67
2023-09-14T19:45:38.181Z,72.78
2023-09-14T19:48:45.179Z,72.49
2023-09-14T19:51:48.422Z,72.44
2023-09-14T19:54:51.601Z,72.31
2023-09-14T19:57:54.524Z,72.34
2023-09-14T20:00:57.480Z,72.27
2023-09-14T20:04:00.696Z,72.23
2023-09-14T20:07:03.979Z,72.16
2023-09-14T20:10:07.729Z,72.14
2023-09-14T20:13:11.022Z,72.11
2023-09-14T20:16:14.282Z,72.05
2023-09-14T20:19:17.327Z,71.96
2023-09-14T20:22:20.389Z,71.95
2023-09-14T20:25:23.343Z,71.88
2023-09-14T20:28:27.114Z,71.94
2023-09-14T20:31:30.279Z,71.91
2023-09-14T20:34:33.827Z,71.89
2023-09-14T20:37:37.707Z,71.80
2023-09-14T20:40:40.985Z,71.73
2023-09-14T20:43:44.910Z,71.88
2023-09-14T20:46:48.911Z,71.95
2023-09-14T20:49:55.556Z,71.90
2023-09-14T20:52:58.731Z,71.90
2023-09-14T20:56:02.127Z,71.90
2023-09-14T20:59:06.336Z,71.89
2023-09-14T21:02:10.387Z,71.83
2023-09-14T21:05:13.543Z,71.83
2023-09-14T21:08:19.334Z,71.88
2023-09-14T21:11:23.808Z,71.88
2023-09-14T21:14:28.286Z,71.86
2023-09-14T21:17:31.306Z,71.92
2023-09-14T21:20:34.450Z,72.01
2023-09-14T21:23:39.080Z,72.06
2023-09-14T21:26:43.229Z,71.95
2023-09-14T21:29:49.816Z,71.92
2023-09-14T21:32:52.859Z,71.94
2023-09-14T21:35:58.061Z,71.92
2023-09-14T21:39:01.389Z,71.91
2023-09-14T21:42:05.400Z,71.95
2023-09-14T21:45:09.130Z,71.94
2023-09-14T21:48:12.105Z,72.04
2023-09-14T21:51:15.110Z,72.02
2023-09-14T21:54:17.959Z,72.15
2023-09-14T21:57:22.181Z,72.13
2023-09-14T22:00:27.363Z,72.23
2023-09-14T22:03:45.033Z,72.22
2023-09-14T22:06:52.733Z,72.28
2023-09-14T22:09:55.968Z,72.20
2023-09-14T22:12:59.749Z,72.19
2023-09-14T22:16:03.790Z,72.29
2023-09-14T22:19:06.964Z,72.35
2023-09-14T22:22:12.082Z,72.25
2023-09-14T22:25:16.270Z,72.15
2023-09-14T22:28:19.432Z,72.13
2023-09-14T22:31:22.540Z,72.19
2023-09-14T22:34:27.801Z,72.19
2023-09-14T22:37:39.958Z,72.33
2023-09-14T22:40:48.712Z,72.44
2023-09-14T22:43:51.614Z,72.66
2023-09-14T22:46:54.616Z,72.65
2023-09-14T22:49:57.858Z,72.83
2023-09-14T22:53:00.781Z,72.84
2023-09-14T22:56:05.139Z,72.81
2023-09-14T22:59:08.083Z,72.81
2023-09-14T23:02:11.005Z,72.80
2023-09-14T23:05:14.392Z,72.86
2023-09-14T23:08:17.371Z,72.76
2023-09-14T23:11:33.246Z,72.75
2023-09-14T23:14:36.367Z,72.74
2023-09-14T23:17:39.670Z,72.78
2023-09-14T23:20:42.794Z,72.81
2023-09-14T23:23:45.709Z,72.88
2023-09-14T23:26:49.535Z,72.84
2023-09-14T23:29:53.196Z,72.81
2023-09-14T23:32:57.889Z,72.71
2023-09-14T23:36:08.530Z,72.55
2023-09-14T23:39:19.102Z,72.44
2023-09-14T23:42:22.161Z,72.40
2023-09-14T23:45:25.589Z,72.32
2023-09-14T23:48:28.703Z,72.37
2023-09-14T23:51:31.721Z,72.41
2023-09-14T23:54:34.909Z,72.47
2023-09-14T23:57:37.992Z,72.35
